Latest Coastal Weather Observations for Mandora

IDW60701

Issued at 3:55 pm WST Wednesday 23 April 2014 (issued every 10 minutes, with the page automatically refreshed every 10 minutes)

About coastal observations | Map of coastal stations | Coastal observations for WA | Marine services | Other Formats
Station Details ID: 004019 Name: MANDORA Lat: -19.74 Lon: 120.84 Height: 7.5 m
Data from the previous 72 hours. | See also: Recent months at Mandora
Date/Time
WST
Temp

°C
Wind Pressure Rain
since 9am
mm
Weather Cloud Vis
km
Sea
Height
m
Swell
Dir
 
Speed
knots
Gust
knots
hPa Trend Height
m
Period
s
Dir
23/03:30pm 33.8 NW 10 14 1007.8 - 0.0 - - - - - - -
23/03:00pm 34.0 NNW 10 15 1007.9 - 0.0 - - - - - - -
23/02:30pm 34.3 NNW 10 15 1008.0 - 0.0 - - - - - - -
23/02:00pm 35.1 N 11 16 1008.2 - 0.0 - - - - - - -
23/01:30pm 34.7 N 11 15 1008.5 - 0.0 - - - - - - -
23/01:00pm 35.6 N 11 16 1008.8 - 0.0 - - - - - - -
23/12:30pm 35.9 N 11 15 1009.2 - 0.0 - - - - - - -
23/12:00pm 36.0 N 11 16 1009.7 - 0.0 - - - - - - -
23/11:30am 36.9 NNE 10 15 1010.4 - 0.0 - - - - - - -
23/11:00am 36.2 NNE 10 15 1010.9 - 0.0 - - - - - - -
23/10:30am 35.5 NE 11 17 1011.4 - 0.0 - - - - - - -
23/10:00am 34.8 ENE 10 16 1011.8 - 0.0 - - - - - - -
23/09:30am 32.9 E 10 14 1012.2 - 0.0 - - - - - - -
23/09:00am 31.5 E 10 16 1012.2 - 0.0 - - - - - - -
23/08:30am 29.8 E 8 14 1012.3 - 0.0 - - - - - - -
23/08:00am 27.8 ESE 8 13 1012.1 - 0.0 - - - - - - -
23/07:30am 24.2 ESE 7 11 1012.0 - 0.0 - - - - - - -
23/07:00am 20.8 SE 6 8 1011.6 - 0.0 - - - - - - -
23/06:30am 16.6 ESE 5 6 1011.3 - 0.0 - - - - - - -
23/06:00am 16.7 SE 4 5 1010.9 - 0.0 - - - - - - -
23/05:30am 17.5 SE 5 6 1010.9 - 0.0 - - - - - - -
23/05:00am 18.4 S 5 6 1010.8 - 0.0 - - - - - - -
23/04:30am 20.1 SSE 5 7 1010.8 - 0.0 - - - - - - -
23/04:00am 19.2 S 6 8 1010.7 - 0.0 - - - - - - -
23/03:30am 20.3 SSE 6 7 1010.9 - 0.0 - - - - - - -
23/03:00am 20.5 S 7 9 1010.5 - 0.0 - - - - - - -
23/02:30am 21.2 S 7 9 1010.7 - 0.0 - - - - - - -
23/02:00am 20.2 SSW 6 7 1010.9 - 0.0 - - - - - - -
23/01:30am 19.9 SSW 5 6 1011.3 - 0.0 - - - - - - -
23/01:00am 21.4 S 6 7 1011.7 - 0.0 - - - - - - -
23/12:30am 21.7 S 7 8 1011.9 - 0.0 - - - - - - -
23/12:00am 21.2 SSW 7 8 1011.9 - 0.0 - - - - - - -
 
Date/Time
WST
Temp

°C
Wind Pressure Rain
since 9am
mm
Weather Cloud Vis
km
Sea
Height
m
Swell
Dir
 
Speed
knots
Gust
knots
hPa Trend Height
m
Period
s
Dir
22/11:30pm 19.8 SSW 6 7 1012.1 - 0.0 - - - - - - -
22/11:00pm 21.0 SW 5 5 1012.2 - 0.0 - - - - - - -
22/10:30pm 22.4 SSW 6 7 1012.2 - 0.0 - - - - - - -
22/10:00pm 23.4 SW 6 8 1012.1 - 0.0 - - - - - - -
22/09:30pm 24.1 SW 7 9 1012.0 - 0.0 - - - - - - -
22/09:00pm 23.3 SW 6 8 1011.8 - 0.0 - - - - - - -
22/08:30pm 23.5 SW 6 8 1011.7 - 0.0 - - - - - - -
22/08:00pm 23.7 WSW 6 7 1011.5 - 0.0 - - - - - - -
22/07:30pm 24.0 SW 7 8 1011.4 - 0.0 - - - - - - -
22/07:00pm 24.7 WSW 6 7 1011.1 - 0.0 - - - - - - -
22/06:30pm 25.2 W 6 8 1010.8 - 0.0 - - - - - - -
22/06:00pm 26.9 W 5 7 1010.5 - 0.0 - - - - - - -
22/05:30pm 28.9 WNW 6 9 1010.3 - 0.0 - - - - - - -
22/05:00pm 30.6 WNW 8 11 1010.0 - 0.0 - - - - - - -
22/04:30pm 32.2 W 9 13 1009.8 - 0.0 - - - - - - -
22/04:00pm 33.2 WNW 8 12 1009.5 - 0.0 - - - - - - -
22/03:30pm 33.9 NW 9 12 1009.3 - 0.0 - - - - - - -
22/03:00pm 34.3 NW 10 14 1009.2 - 0.0 - - - - - - -
22/02:30pm 34.6 WNW 10 15 1009.4 - 0.0 - - - - - - -
22/02:00pm 34.0 NW 10 14 1009.7 - 0.0 - - - - - - -
22/01:30pm 34.5 NW 10 15 1009.8 - 0.0 - - - - - - -
22/01:00pm 34.7 NW 10 15 1010.0 - 0.0 - - - - - - -
22/12:30pm 35.8 NNW 9 12 1010.3 - 0.0 - - - - - - -
22/12:00pm 35.7 NNW 7 11 1010.7 - 0.0 - - - - - - -
22/11:30am 34.9 NNW 6 11 1011.4 - 0.0 - - - - - - -
22/11:00am 35.7 NE 6 9 1012.0 - 0.0 - - - - - - -
22/10:30am 35.2 E 4 8 1012.6 - 0.0 - - - - - - -
22/10:00am 33.2 ENE 3 6 1013.0 - 0.0 - - - - - - -
22/09:30am 31.7 ENE 4 6 1013.4 - 0.0 - - - - - - -
22/09:00am 29.8 NE 5 7 1013.3 - 0.0 - - - - - - -
22/08:30am 28.9 ENE 6 9 1013.4 - 0.0 - - - - - - -
22/08:00am 26.5 SSE 4 6 1013.0 - 0.0 - - - - - - -
22/07:54am 25.4 SSE 4 6 1013.0 - 0.0 - - - - - - -
22/07:30am 20.4 SE 2 4 1013.0 - 0.0 - - - - - - -
22/07:00am 15.7 CALM 0 0 1012.6 - 0.0 - - - - - - -
22/06:30am 13.5 E 3 4 1012.5 - 0.0 - - - - - - -
22/06:00am 14.2 E 4 5 1012.1 - 0.0 - - - - - - -
22/05:30am 14.0 E 5 7 1012.1 - 0.0 - - - - - - -
22/05:00am 13.3 SSE 4 5 1011.7 - 0.0 - - - - - - -
22/04:30am 14.0 SSE 5 6 1011.5 - 0.0 - - - - - - -
22/04:00am 13.5 SSE 2 3 1011.4 - 0.0 - - - - - - -
22/03:30am 13.9 ESE 4 5 1011.4 - 0.0 - - - - - - -
22/03:00am 14.2 E 1 4 1011.3 - 0.0 - - - - - - -
22/02:30am 14.9 SSE 4 5 1011.4 - 0.0 - - - - - - -
22/02:00am 14.8 CALM 0 0 1011.4 - 0.0 - - - - - - -
22/01:30am 15.4 SW 1 3 1011.6 - 0.0 - - - - - - -
22/01:00am 15.9 SW 3 4 1011.9 - 0.0 - - - - - - -
22/12:30am 16.7 SSW 5 6 1012.1 - 0.0 - - - - - - -
22/12:00am 17.3 S 4 5 1012.3 - 0.0 - - - - - - -
 
Date/Time
WST
Temp

°C
Wind Pressure Rain
since 9am
mm
Weather Cloud Vis
km
Sea
Height
m
Swell
Dir
 
Speed
knots
Gust
knots
hPa Trend Height
m
Period
s
Dir
21/11:30pm 17.8 SSW 5 5 1012.5 - 0.0 - - - - - - -
21/11:00pm 19.5 S 5 5 1012.6 - 0.0 - - - - - - -
21/10:30pm 21.2 S 6 7 1012.7 - 0.0 - - - - - - -
21/10:00pm 20.3 SW 6 8 1012.6 - 0.0 - - - - - - -
21/09:30pm 21.2 SW 6 7 1012.5 - 0.0 - - - - - - -
21/09:00pm 21.9 SW 7 7 1012.3 - 0.0 - - - - - - -
21/08:30pm 22.4 SW 7 8 1012.3 - 0.0 - - - - - - -
21/08:00pm 23.2 SW 6 7 1012.0 - 0.0 - - - - - - -
21/07:30pm 23.8 WSW 6 7 1011.5 - 0.0 - - - - - - -
21/07:00pm 24.5 WSW 5 6 1011.2 - 0.0 - - - - - - -
21/06:30pm 26.0 WSW 7 8 1010.8 - 0.0 - - - - - - -
21/06:00pm 27.4 W 5 7 1010.4 - 0.0 - - - - - - -
21/05:30pm 29.4 W 6 7 1010.3 - 0.0 - - - - - - -
21/05:00pm 31.7 NW 6 9 1010.0 - 0.0 - - - - - - -
21/04:30pm 33.6 NW 8 10 1009.7 - 0.0 - - - - - - -
21/04:00pm 34.3 NNW 9 13 1009.6 - 0.0 - - - - - - -
21/03:30pm 35.5 NNW 10 14 1009.4 - 0.0 - - - - - - -
21/03:00pm 35.6 NNW 10 15 1009.2 - 0.0 - - - - - - -
21/02:30pm 35.8 NNW 9 15 1009.4 - 0.0 - - - - - - -
21/02:00pm 36.7 NW 8 13 1009.5 - 0.0 - - - - - - -
21/01:30pm 37.3 SSE 7 10 1009.4 - 0.0 - - - - - - -
21/01:00pm 36.9 S 7 13 1009.6 - 0.0 - - - - - - -
21/12:30pm 37.2 NNE 3 8 1010.0 - 0.0 - - - - - - -
21/12:00pm 36.5 ENE 3 6 1010.5 - 0.0 - - - - - - -
21/11:30am 36.0 SSW 4 8 1011.1 - 0.0 - - - - - - -
21/11:00am 34.8 S 6 12 1011.6 - 0.0 - - - - - - -
21/10:30am 34.0 SSE 7 12 1011.9 - 0.0 - - - - - - -
21/10:00am 33.2 SSE 6 10 1012.3 - 0.0 - - - - - - -
21/09:30am 31.6 S 5 9 1012.6 - 0.0 - - - - - - -
21/09:00am 29.9 SE 5 8 1012.5 - 0.0 - - - - - - -
21/08:30am 28.3 E 6 8 1012.5 - 0.0 - - - - - - -
21/08:00am 24.2 ESE 4 6 1012.7 - 0.0 - - - - - - -
21/07:30am 20.3 ESE 4 6 1012.6 - 0.0 - - - - - - -
21/07:00am 15.7 E 3 4 1012.5 - 0.0 - - - - - - -
21/06:30am 13.0 NE 4 5 1012.1 - 0.0 - - - - - - -
21/06:00am 13.1 ENE 5 6 1011.7 - 0.0 - - - - - - -
21/05:30am 13.0 E 4 5 1011.5 - 0.0 - - - - - - -
21/05:00am 13.7 ENE 3 3 1011.0 - 0.0 - - - - - - -
21/04:30am 15.4 ESE 5 7 1010.8 - 0.0 - - - - - - -
21/04:00am 14.8 ESE 1 4 1010.6 - 0.0 - - - - - - -
21/03:30am 15.7 S 5 6 1010.4 - 0.0 - - - - - - -
21/03:00am 15.7 S 5 6 1010.3 - 0.0 - - - - - - -
21/02:30am 16.3 S 5 6 1010.2 - 0.0 - - - - - - -
21/02:00am 18.9 S 5 5 1010.4 - 0.0 - - - - - - -
21/01:30am 19.7 SSE 5 7 1010.6 - 0.0 - - - - - - -
21/01:00am 20.4 S 7 9 1010.7 - 0.0 - - - - - - -
21/12:30am 20.4 S 7 9 1010.8 - 0.0 - - - - - - -
21/12:00am 19.8 S 6 7 1010.8 - 0.0 - - - - - - -
 
Date/Time
WST
Temp

°C
Wind Pressure Rain
since 9am
mm
Weather Cloud Vis
km
Sea
Height
m
Swell
Dir
 
Speed
knots
Gust
knots
hPa Trend Height
m
Period
s
Dir
20/11:30pm 20.0 S 6 8 1010.7 - 0.0 - - - - - - -
20/11:00pm 20.0 S 6 7 1010.8 - 0.0 - - - - - - -
20/10:30pm 19.9 S 5 7 1010.8 - 0.0 - - - - - - -
20/10:00pm 20.5 S 5 6 1010.9 - 0.0 - - - - - - -
20/09:30pm 20.6 S 5 5 1010.8 - 0.0 - - - - - - -
20/09:00pm 22.0 S 5 6 1010.7 - 0.0 - - - - - - -
20/08:30pm 22.2 SW 5 6 1010.6 - 0.0 - - - - - - -
20/08:00pm 22.4 WSW 5 6 1010.5 - 0.0 - - - - - - -
20/07:30pm 22.3 WSW 4 5 1010.1 - 0.0 - - - - - - -
20/07:00pm 23.8 WSW 5 6 1009.9 - 0.0 - - - - - - -
20/06:30pm 25.0 WSW 4 5 1009.7 - 0.0 - - - - - - -
20/06:00pm 26.9 WNW 5 6 1009.4 - 0.0 - - - - - - -
20/05:30pm 29.5 WNW 5 7 1009.2 - 0.0 - - - - - - -
20/05:00pm 31.5 NW 7 9 1009.1 - 0.0 - - - - - - -
20/04:30pm 32.9 NNW 8 10 1008.9 - 0.0 - - - - - - -
20/04:00pm 33.7 NNW 9 12 1008.9 - 0.0 - - - - - - -

Other Formats:

Comma delimited format used in spreadsheet applications
http://www.bom.gov.au/fwo/IDW60701/IDW60701.94200.axf

JavaScript Object Notation format (JSON) in row-major order
http://www.bom.gov.au/fwo/IDW60701/IDW60701.94200.json